EJU26DE LFQQ-LFMN
Flight info
| Callsign | EJU26DE |
|---|---|
| Flight time | 1h 25m |
| Altitude | 35000 |
| Route | VERMA T372 LESDO DCT KOVIN DCT DUCRA UM728 KETEX DCT KOTIS DCT KUKOR DCT UTUVA DCT LERGA DCT LIQID DCT LATAM DCT TUNUR DCT NISAR |
| Aircraft | A320/M-SDE3FGHIRWY/LB1 |
Departure
| Time | 2026-05-04 21:30 |
|---|---|
| Airport | Lille Airport (LFQQ) |
Arrival
| Time | 2026-05-04 22:55 |
|---|---|
| Airport | Nice-Côte d'Azur Airport (LFMN) |
| Time | Latitude | Longitude | Altitude | Speed | Heading |
|---|---|---|---|---|---|
| 2026-05-04 21:07 | 50.57105 | 3.10610 | 166 ft | 0 kts | 347° |
| 2026-05-04 21:20 | 50.57093 | 3.10614 | 166 ft | 4 kts | 347° |
| 2026-05-04 21:20 | 50.57072 | 3.10622 | 166 ft | 3 kts | 347° |
| 2026-05-04 21:20 | 50.57046 | 3.10630 | 166 ft | 4 kts | 0° |
| 2026-05-04 21:21 | 50.57027 | 3.10621 | 166 ft | 4 kts | 74° |
| 2026-05-04 21:21 | 50.57022 | 3.10589 | 166 ft | 1 kts | 77° |
| 2026-05-04 21:26 | 50.57027 | 3.10647 | 166 ft | 7 kts | 96° |
| 2026-05-04 21:26 | 50.56982 | 3.10702 | 166 ft | 10 kts | 167° |
| 2026-05-04 21:26 | 50.56916 | 3.10725 | 166 ft | 9 kts | 168° |
| 2026-05-04 21:26 | 50.56854 | 3.10769 | 166 ft | 11 kts | 127° |
| 2026-05-04 21:27 | 50.56857 | 3.10906 | 166 ft | 16 kts | 77° |
| 2026-05-04 21:27 | 50.56884 | 3.11092 | 166 ft | 19 kts | 77° |
| 2026-05-04 21:27 | 50.56913 | 3.11297 | 166 ft | 15 kts | 78° |
| 2026-05-04 21:27 | 50.56932 | 3.11439 | 166 ft | 12 kts | 78° |
| 2026-05-04 21:28 | 50.56940 | 3.11540 | 166 ft | 9 kts | 100° |
| 2026-05-04 21:28 | 50.56902 | 3.11596 | 166 ft | 7 kts | 162° |
| 2026-05-04 21:28 | 50.56835 | 3.11617 | 167 ft | 12 kts | 168° |
| 2026-05-04 21:28 | 50.56773 | 3.11625 | 169 ft | 7 kts | 200° |
| 2026-05-04 21:29 | 50.56755 | 3.11576 | 169 ft | 0 kts | 257° |
| 2026-05-04 21:29 | 50.56727 | 3.11380 | 168 ft | 57 kts | 258° |
| 2026-05-04 21:29 | 50.56586 | 3.10381 | 166 ft | 126 kts | 257° |
| 2026-05-04 21:30 | 50.56351 | 3.08781 | 355 ft | 162 kts | 261° |
| 2026-05-04 21:30 | 50.56226 | 3.07034 | 1096 ft | 161 kts | 275° |
| 2026-05-04 21:30 | 50.56227 | 3.05232 | 1736 ft | 173 kts | 274° |
| 2026-05-04 21:30 | 50.56253 | 3.03248 | 2201 ft | 191 kts | 274° |
| 2026-05-04 21:31 | 50.56248 | 2.98638 | 2995 ft | 239 kts | 260° |
| 2026-05-04 21:31 | 50.55608 | 2.96067 | 3549 ft | 263 kts | 237° |
| 2026-05-04 21:31 | 50.54319 | 2.94019 | 4330 ft | 273 kts | 211° |
| 2026-05-04 21:32 | 50.52540 | 2.92903 | 5203 ft | 281 kts | 189° |
| 2026-05-04 21:32 | 50.50577 | 2.92620 | 6176 ft | 283 kts | 185° |
| 2026-05-04 21:32 | 50.48644 | 2.91994 | 7157 ft | 286 kts | 193° |
| 2026-05-04 21:32 | 50.46674 | 2.91475 | 8083 ft | 289 kts | 181° |
| 2026-05-04 21:33 | 50.44668 | 2.91688 | 9044 ft | 290 kts | 171° |
| 2026-05-04 21:33 | 50.42661 | 2.92143 | 10005 ft | 293 kts | 170° |
| 2026-05-04 21:33 | 50.40615 | 2.92657 | 10625 ft | 307 kts | 169° |
| 2026-05-04 21:33 | 50.38438 | 2.93257 | 11032 ft | 328 kts | 169° |
| 2026-05-04 21:34 | 50.36129 | 2.93942 | 11436 ft | 346 kts | 168° |
| 2026-05-04 21:34 | 50.33752 | 2.94482 | 12137 ft | 353 kts | 173° |
| 2026-05-04 21:34 | 50.31289 | 2.94819 | 12922 ft | 357 kts | 175° |
| 2026-05-04 21:34 | 50.28796 | 2.95126 | 13683 ft | 362 kts | 171° |
| 2026-05-04 21:35 | 50.26332 | 2.95990 | 14365 ft | 365 kts | 160° |
| 2026-05-04 21:35 | 50.24028 | 2.97677 | 15065 ft | 368 kts | 147° |
| 2026-05-04 21:35 | 50.21928 | 2.99984 | 15766 ft | 371 kts | 143° |
| 2026-05-04 21:35 | 50.19834 | 3.02354 | 16457 ft | 374 kts | 143° |
| 2026-05-04 21:36 | 50.17710 | 3.04746 | 17130 ft | 378 kts | 143° |
| 2026-05-04 21:36 | 50.15565 | 3.07144 | 17806 ft | 382 kts | 144° |
| 2026-05-04 21:36 | 50.13390 | 3.09559 | 18426 ft | 386 kts | 144° |
| 2026-05-04 21:36 | 50.11191 | 3.11989 | 18988 ft | 389 kts | 144° |
| 2026-05-04 21:37 | 50.08973 | 3.14437 | 19567 ft | 392 kts | 144° |
| 2026-05-04 21:37 | 50.06735 | 3.16906 | 20163 ft | 394 kts | 144° |
| 2026-05-04 21:37 | 50.04522 | 3.19347 | 20754 ft | 396 kts | 145° |
| 2026-05-04 21:37 | 50.02253 | 3.21835 | 21254 ft | 401 kts | 147° |
| 2026-05-04 21:38 | 49.99818 | 3.23969 | 21753 ft | 404 kts | 156° |
| 2026-05-04 21:38 | 49.97167 | 3.25451 | 22283 ft | 406 kts | 166° |
| 2026-05-04 21:38 | 49.94417 | 3.26517 | 22814 ft | 409 kts | 166° |
| 2026-05-04 21:38 | 49.91646 | 3.27585 | 23349 ft | 411 kts | 166° |
| 2026-05-04 21:39 | 49.88862 | 3.28663 | 23840 ft | 413 kts | 167° |
| 2026-05-04 21:39 | 49.86061 | 3.29752 | 24294 ft | 415 kts | 167° |
| 2026-05-04 21:39 | 49.83210 | 3.30439 | 24726 ft | 416 kts | 178° |
| 2026-05-04 21:39 | 49.80317 | 3.30334 | 25150 ft | 416 kts | 188° |
| 2026-05-04 21:40 | 49.77483 | 3.29432 | 25584 ft | 416 kts | 198° |
| 2026-05-04 21:40 | 49.74785 | 3.27822 | 26025 ft | 417 kts | 204° |
| 2026-05-04 21:40 | 49.72117 | 3.26045 | 26471 ft | 418 kts | 204° |
| 2026-05-04 21:40 | 49.69435 | 3.24275 | 26903 ft | 419 kts | 204° |
| 2026-05-04 21:41 | 49.66752 | 3.22519 | 27390 ft | 419 kts | 204° |
| 2026-05-04 21:41 | 49.64062 | 3.20762 | 27842 ft | 420 kts | 204° |
| 2026-05-04 21:41 | 49.61364 | 3.18999 | 28266 ft | 421 kts | 204° |
| 2026-05-04 21:41 | 49.58661 | 3.17227 | 28667 ft | 423 kts | 204° |
| 2026-05-04 21:42 | 49.55898 | 3.15675 | 29051 ft | 426 kts | 194° |
| 2026-05-04 21:42 | 49.52937 | 3.15197 | 29410 ft | 430 kts | 184° |
| 2026-05-04 21:42 | 49.49938 | 3.15128 | 29771 ft | 432 kts | 183° |
| 2026-05-04 21:42 | 49.46936 | 3.14890 | 30105 ft | 432 kts | 188° |
| 2026-05-04 21:43 | 49.43947 | 3.14406 | 30417 ft | 433 kts | 188° |
| 2026-05-04 21:43 | 49.40991 | 3.13929 | 30759 ft | 432 kts | 188° |
| 2026-05-04 21:43 | 49.38009 | 3.13447 | 31197 ft | 430 kts | 188° |
| 2026-05-04 21:43 | 49.35045 | 3.12964 | 31643 ft | 427 kts | 188° |
| 2026-05-04 21:44 | 49.32091 | 3.12483 | 32097 ft | 425 kts | 189° |
| 2026-05-04 21:44 | 49.29158 | 3.12001 | 32539 ft | 423 kts | 189° |
| 2026-05-04 21:44 | 49.26241 | 3.11519 | 32982 ft | 420 kts | 189° |
| 2026-05-04 21:44 | 49.23343 | 3.11040 | 33440 ft | 418 kts | 189° |
| 2026-05-04 21:45 | 49.20463 | 3.10565 | 33898 ft | 415 kts | 189° |
| 2026-05-04 21:45 | 49.17596 | 3.10094 | 34287 ft | 413 kts | 189° |
| 2026-05-04 21:45 | 49.14732 | 3.09626 | 34597 ft | 414 kts | 189° |
| 2026-05-04 21:45 | 49.11903 | 3.09164 | 34850 ft | 415 kts | 189° |
| 2026-05-04 21:46 | 49.09030 | 3.08695 | 34957 ft | 416 kts | 189° |
| 2026-05-04 21:46 | 49.03296 | 3.07767 | 34968 ft | 413 kts | 189° |
| 2026-05-04 21:47 | 48.97599 | 3.06848 | 34971 ft | 411 kts | 189° |
| 2026-05-04 21:47 | 48.91917 | 3.05921 | 34969 ft | 410 kts | 189° |
| 2026-05-04 21:48 | 48.86236 | 3.05004 | 34968 ft | 410 kts | 189° |
| 2026-05-04 21:48 | 48.80554 | 3.04102 | 34968 ft | 410 kts | 189° |
| 2026-05-04 21:49 | 48.74882 | 3.03194 | 34966 ft | 410 kts | 189° |
| 2026-05-04 21:49 | 48.69212 | 3.02283 | 34961 ft | 410 kts | 189° |
| 2026-05-04 21:50 | 48.63543 | 3.01375 | 34960 ft | 410 kts | 189° |
| 2026-05-04 21:50 | 48.57877 | 3.00465 | 34958 ft | 410 kts | 189° |
| 2026-05-04 21:51 | 48.52243 | 2.99567 | 34956 ft | 409 kts | 189° |
| 2026-05-04 21:51 | 48.46657 | 2.98681 | 34957 ft | 409 kts | 189° |
| 2026-05-04 21:52 | 48.41033 | 2.97788 | 34957 ft | 409 kts | 189° |
| 2026-05-04 21:52 | 48.35366 | 2.96888 | 34951 ft | 409 kts | 188° |
| 2026-05-04 21:53 | 48.29703 | 2.96001 | 34950 ft | 409 kts | 188° |
| 2026-05-04 21:53 | 48.24035 | 2.95109 | 34948 ft | 409 kts | 188° |
| 2026-05-04 21:54 | 48.18375 | 2.94219 | 34943 ft | 409 kts | 188° |
| 2026-05-04 21:54 | 48.12716 | 2.93334 | 34946 ft | 409 kts | 188° |
| 2026-05-04 21:55 | 48.07093 | 2.92462 | 34944 ft | 409 kts | 188° |
| 2026-05-04 21:55 | 48.01427 | 2.91625 | 34942 ft | 409 kts | 188° |
| 2026-05-04 21:56 | 47.95757 | 2.90812 | 34941 ft | 409 kts | 188° |
| 2026-05-04 21:56 | 47.90089 | 2.89985 | 34944 ft | 409 kts | 188° |
| 2026-05-04 21:57 | 47.84421 | 2.89149 | 34943 ft | 409 kts | 188° |
| 2026-05-04 21:57 | 47.78759 | 2.88315 | 34943 ft | 409 kts | 188° |
| 2026-05-04 21:58 | 47.73094 | 2.87485 | 34935 ft | 408 kts | 188° |
| 2026-05-04 21:58 | 47.67475 | 2.86662 | 34940 ft | 408 kts | 188° |
| 2026-05-04 21:59 | 47.61817 | 2.85844 | 34943 ft | 408 kts | 188° |
| 2026-05-04 21:59 | 47.56169 | 2.85025 | 34941 ft | 407 kts | 188° |
| 2026-05-04 22:00 | 47.50532 | 2.84209 | 34936 ft | 407 kts | 187° |
| 2026-05-04 22:00 | 47.44898 | 2.83394 | 34937 ft | 406 kts | 187° |
| 2026-05-04 22:01 | 47.39267 | 2.82583 | 34933 ft | 406 kts | 187° |
| 2026-05-04 22:01 | 47.33646 | 2.81774 | 34929 ft | 406 kts | 187° |
| 2026-05-04 22:02 | 47.28025 | 2.80969 | 34930 ft | 405 kts | 187° |
| 2026-05-04 22:02 | 47.22427 | 2.80885 | 34922 ft | 409 kts | 174° |
| 2026-05-04 22:03 | 47.16918 | 2.83184 | 34913 ft | 413 kts | 166° |
| 2026-05-04 22:03 | 47.11457 | 2.85800 | 34910 ft | 413 kts | 166° |
| 2026-05-04 22:04 | 47.05991 | 2.88408 | 34892 ft | 413 kts | 166° |
| 2026-05-04 22:04 | 47.00509 | 2.91019 | 34896 ft | 414 kts | 166° |
| 2026-05-04 22:05 | 46.95021 | 2.93640 | 34899 ft | 415 kts | 166° |
| 2026-05-04 22:05 | 46.90455 | 2.95813 | 34904 ft | 415 kts | 166° |
| 2026-05-04 22:06 | 46.84959 | 2.98417 | 34909 ft | 415 kts | 166° |
| 2026-05-04 22:06 | 46.79472 | 3.01010 | 34911 ft | 414 kts | 166° |
| 2026-05-04 22:07 | 46.73987 | 3.03600 | 34914 ft | 414 kts | 166° |
| 2026-05-04 22:07 | 46.68500 | 3.06187 | 34914 ft | 414 kts | 166° |
| 2026-05-04 22:08 | 46.63020 | 3.08762 | 34914 ft | 414 kts | 166° |
| 2026-05-04 22:08 | 46.57575 | 3.11315 | 34914 ft | 414 kts | 166° |
| 2026-05-04 22:09 | 46.52098 | 3.13927 | 34912 ft | 415 kts | 165° |
| 2026-05-04 22:09 | 46.49480 | 3.15717 | 34918 ft | 421 kts | 152° |
| 2026-05-04 22:09 | 46.47040 | 3.18103 | 34918 ft | 422 kts | 150° |
| 2026-05-04 22:10 | 46.42201 | 3.22950 | 34905 ft | 423 kts | 150° |
| 2026-05-04 22:10 | 46.37376 | 3.27826 | 34916 ft | 422 kts | 150° |
| 2026-05-04 22:11 | 46.32552 | 3.32672 | 34922 ft | 422 kts | 150° |
| 2026-05-04 22:11 | 46.27727 | 3.37487 | 34932 ft | 421 kts | 150° |
| 2026-05-04 22:12 | 46.22938 | 3.42252 | 34934 ft | 420 kts | 150° |
| 2026-05-04 22:12 | 46.18122 | 3.47042 | 34932 ft | 420 kts | 150° |
| 2026-05-04 22:13 | 46.13309 | 3.51809 | 34936 ft | 420 kts | 150° |
| 2026-05-04 22:13 | 46.08493 | 3.56573 | 34941 ft | 419 kts | 150° |
| 2026-05-04 22:14 | 46.03687 | 3.61319 | 34945 ft | 418 kts | 150° |
| 2026-05-04 22:14 | 45.98888 | 3.66054 | 34945 ft | 418 kts | 150° |
| 2026-05-04 22:15 | 45.94096 | 3.70772 | 34943 ft | 417 kts | 150° |
| 2026-05-04 22:15 | 45.89320 | 3.75406 | 34942 ft | 416 kts | 150° |
| 2026-05-04 22:16 | 45.84509 | 3.80034 | 34953 ft | 416 kts | 151° |
| 2026-05-04 22:16 | 45.79698 | 3.84651 | 34947 ft | 415 kts | 150° |
| 2026-05-04 22:17 | 45.74901 | 3.89265 | 34954 ft | 415 kts | 150° |
| 2026-05-04 22:17 | 45.70102 | 3.93879 | 34932 ft | 416 kts | 151° |
| 2026-05-04 22:18 | 45.65291 | 3.98479 | 34940 ft | 417 kts | 151° |
| 2026-05-04 22:18 | 45.60470 | 4.03093 | 34948 ft | 418 kts | 150° |
| 2026-05-04 22:19 | 45.55640 | 4.07712 | 34946 ft | 418 kts | 151° |
| 2026-05-04 22:19 | 45.50832 | 4.12289 | 34956 ft | 418 kts | 151° |
| 2026-05-04 22:20 | 45.45985 | 4.16883 | 34967 ft | 418 kts | 151° |
| 2026-05-04 22:20 | 45.41136 | 4.21472 | 34970 ft | 418 kts | 151° |
| 2026-05-04 22:21 | 45.36294 | 4.26057 | 34944 ft | 418 kts | 151° |
| 2026-05-04 22:21 | 45.31451 | 4.30628 | 34947 ft | 418 kts | 151° |
| 2026-05-04 22:22 | 45.26608 | 4.35184 | 34942 ft | 417 kts | 151° |
| 2026-05-04 22:22 | 45.21767 | 4.39730 | 34952 ft | 417 kts | 151° |
| 2026-05-04 22:23 | 45.16924 | 4.44273 | 34957 ft | 417 kts | 151° |
| 2026-05-04 22:23 | 45.12118 | 4.48778 | 34961 ft | 417 kts | 151° |
| 2026-05-04 22:24 | 45.07280 | 4.53300 | 34954 ft | 417 kts | 151° |
| 2026-05-04 22:24 | 45.02436 | 4.57817 | 34957 ft | 417 kts | 151° |
| 2026-05-04 22:25 | 44.97589 | 4.62327 | 34934 ft | 418 kts | 152° |
| 2026-05-04 22:25 | 44.92718 | 4.66843 | 34939 ft | 419 kts | 152° |
| 2026-05-04 22:26 | 44.87832 | 4.71364 | 34939 ft | 420 kts | 152° |
| 2026-05-04 22:26 | 44.82932 | 4.75896 | 34938 ft | 422 kts | 152° |
| 2026-05-04 22:27 | 44.78053 | 4.80404 | 34947 ft | 423 kts | 152° |
| 2026-05-04 22:27 | 44.73122 | 4.84947 | 34951 ft | 424 kts | 152° |
| 2026-05-04 22:28 | 44.68187 | 4.89483 | 34952 ft | 424 kts | 152° |
| 2026-05-04 22:28 | 44.63258 | 4.94059 | 34684 ft | 425 kts | 151° |
| 2026-05-04 22:28 | 44.60811 | 4.96389 | 34422 ft | 425 kts | 151° |
| 2026-05-04 22:29 | 44.58371 | 4.98728 | 34176 ft | 425 kts | 151° |
| 2026-05-04 22:29 | 44.55928 | 5.01065 | 33944 ft | 424 kts | 151° |
| 2026-05-04 22:29 | 44.53488 | 5.03388 | 33677 ft | 424 kts | 151° |
| 2026-05-04 22:29 | 44.51051 | 5.05716 | 33396 ft | 425 kts | 149° |
| 2026-05-04 22:30 | 44.48778 | 5.08408 | 33105 ft | 432 kts | 140° |
| 2026-05-04 22:30 | 44.46741 | 5.11546 | 32837 ft | 436 kts | 137° |
| 2026-05-04 22:30 | 44.44735 | 5.14741 | 32572 ft | 437 kts | 136° |
| 2026-05-04 22:30 | 44.42728 | 5.17934 | 32310 ft | 437 kts | 136° |
| 2026-05-04 22:31 | 44.40714 | 5.21129 | 32052 ft | 438 kts | 136° |
| 2026-05-04 22:31 | 44.38697 | 5.24321 | 31794 ft | 438 kts | 136° |
| 2026-05-04 22:31 | 44.36555 | 5.27324 | 31536 ft | 434 kts | 144° |
| 2026-05-04 22:31 | 44.34198 | 5.29936 | 31285 ft | 433 kts | 146° |
| 2026-05-04 22:32 | 44.31849 | 5.32486 | 30856 ft | 434 kts | 146° |
| 2026-05-04 22:32 | 44.29459 | 5.35081 | 30337 ft | 436 kts | 146° |
| 2026-05-04 22:32 | 44.27059 | 5.37689 | 29842 ft | 437 kts | 146° |
| 2026-05-04 22:32 | 44.24673 | 5.40283 | 29338 ft | 434 kts | 146° |
| 2026-05-04 22:33 | 44.22295 | 5.42869 | 28854 ft | 432 kts | 146° |
| 2026-05-04 22:33 | 44.19935 | 5.45437 | 28379 ft | 429 kts | 146° |
| 2026-05-04 22:33 | 44.17591 | 5.47985 | 27887 ft | 426 kts | 146° |
| 2026-05-04 22:33 | 44.15262 | 5.50515 | 27420 ft | 423 kts | 146° |
| 2026-05-04 22:34 | 44.12949 | 5.53028 | 26947 ft | 420 kts | 146° |
| 2026-05-04 22:34 | 44.10651 | 5.55518 | 26477 ft | 417 kts | 146° |
| 2026-05-04 22:34 | 44.08361 | 5.57992 | 25997 ft | 415 kts | 146° |
| 2026-05-04 22:34 | 44.06084 | 5.60447 | 25545 ft | 413 kts | 146° |
| 2026-05-04 22:35 | 44.03819 | 5.62889 | 25083 ft | 411 kts | 146° |
| 2026-05-04 22:35 | 44.01594 | 5.65289 | 24639 ft | 409 kts | 146° |
| 2026-05-04 22:35 | 43.99353 | 5.67703 | 24192 ft | 407 kts | 146° |
| 2026-05-04 22:35 | 43.97125 | 5.70099 | 23753 ft | 404 kts | 146° |
| 2026-05-04 22:36 | 43.94907 | 5.72486 | 23255 ft | 402 kts | 146° |
| 2026-05-04 22:36 | 43.92700 | 5.74860 | 22747 ft | 400 kts | 146° |
| 2026-05-04 22:36 | 43.90508 | 5.77221 | 22225 ft | 397 kts | 146° |
| 2026-05-04 22:36 | 43.88332 | 5.79558 | 21741 ft | 394 kts | 146° |
| 2026-05-04 22:37 | 43.86167 | 5.81877 | 21241 ft | 392 kts | 146° |
| 2026-05-04 22:37 | 43.84012 | 5.84179 | 20755 ft | 390 kts | 146° |
| 2026-05-04 22:37 | 43.81869 | 5.86461 | 20289 ft | 387 kts | 146° |
| 2026-05-04 22:37 | 43.79742 | 5.88724 | 19823 ft | 384 kts | 146° |
| 2026-05-04 22:38 | 43.77629 | 5.90969 | 19354 ft | 382 kts | 146° |
| 2026-05-04 22:38 | 43.75523 | 5.93201 | 18908 ft | 380 kts | 146° |
| 2026-05-04 22:38 | 43.73431 | 5.95421 | 18467 ft | 377 kts | 146° |
| 2026-05-04 22:38 | 43.71357 | 5.97625 | 17986 ft | 375 kts | 146° |
| 2026-05-04 22:39 | 43.69301 | 5.99816 | 17479 ft | 372 kts | 146° |
| 2026-05-04 22:39 | 43.67284 | 6.01962 | 16980 ft | 370 kts | 146° |
| 2026-05-04 22:39 | 43.65248 | 6.04121 | 16494 ft | 367 kts | 146° |
| 2026-05-04 22:39 | 43.63229 | 6.06259 | 16079 ft | 365 kts | 146° |
| 2026-05-04 22:40 | 43.61269 | 6.08495 | 15973 ft | 367 kts | 139° |
| 2026-05-04 22:40 | 43.59620 | 6.11215 | 15928 ft | 373 kts | 128° |
| 2026-05-04 22:40 | 43.58367 | 6.14382 | 15218 ft | 381 kts | 115° |
| 2026-05-04 22:40 | 43.57435 | 6.17806 | 14590 ft | 381 kts | 113° |
| 2026-05-04 22:41 | 43.56516 | 6.21220 | 14095 ft | 372 kts | 113° |
| 2026-05-04 22:41 | 43.55652 | 6.24429 | 13969 ft | 343 kts | 114° |
| 2026-05-04 22:41 | 43.54845 | 6.27403 | 13817 ft | 321 kts | 114° |
| 2026-05-04 22:41 | 43.54071 | 6.30227 | 13331 ft | 311 kts | 114° |
| 2026-05-04 22:42 | 43.53306 | 6.32982 | 12742 ft | 305 kts | 115° |
| 2026-05-04 22:42 | 43.52550 | 6.35687 | 12377 ft | 300 kts | 114° |
| 2026-05-04 22:42 | 43.51807 | 6.38344 | 12252 ft | 302 kts | 115° |
| 2026-05-04 22:42 | 43.51053 | 6.41043 | 12121 ft | 301 kts | 115° |
| 2026-05-04 22:43 | 43.50116 | 6.43589 | 11980 ft | 295 kts | 128° |
| 2026-05-04 22:43 | 43.48806 | 6.45748 | 11569 ft | 294 kts | 137° |
| 2026-05-04 22:43 | 43.47392 | 6.47777 | 11237 ft | 290 kts | 136° |
| 2026-05-04 22:43 | 43.45996 | 6.49781 | 10814 ft | 291 kts | 136° |
| 2026-05-04 22:44 | 43.44610 | 6.51771 | 10590 ft | 284 kts | 136° |
| 2026-05-04 22:44 | 43.43253 | 6.53727 | 10310 ft | 281 kts | 136° |
| 2026-05-04 22:44 | 43.41913 | 6.55658 | 9993 ft | 278 kts | 136° |
| 2026-05-04 22:44 | 43.40578 | 6.57578 | 9659 ft | 276 kts | 136° |
| 2026-05-04 22:45 | 43.39359 | 6.59599 | 9291 ft | 276 kts | 125° |
| 2026-05-04 22:45 | 43.38295 | 6.64654 | 8524 ft | 281 kts | 96° |
| 2026-05-04 22:45 | 43.38194 | 6.67342 | 8110 ft | 280 kts | 96° |
| 2026-05-04 22:46 | 43.38086 | 6.69973 | 7709 ft | 278 kts | 97° |
| 2026-05-04 22:46 | 43.38117 | 6.72629 | 7326 ft | 280 kts | 82° |
| 2026-05-04 22:46 | 43.38817 | 6.75129 | 6929 ft | 283 kts | 64° |
| 2026-05-04 22:46 | 43.39762 | 6.77499 | 6517 ft | 282 kts | 64° |
| 2026-05-04 22:47 | 43.40711 | 6.79852 | 6108 ft | 281 kts | 64° |
| 2026-05-04 22:47 | 43.41654 | 6.82185 | 5724 ft | 277 kts | 64° |
| 2026-05-04 22:47 | 43.42582 | 6.84485 | 5354 ft | 273 kts | 64° |
| 2026-05-04 22:47 | 43.43481 | 6.86712 | 5167 ft | 255 kts | 64° |
| 2026-05-04 22:48 | 43.44302 | 6.88751 | 5044 ft | 233 kts | 64° |
| 2026-05-04 22:48 | 43.45058 | 6.90636 | 4849 ft | 217 kts | 64° |
| 2026-05-04 22:48 | 43.45762 | 6.92393 | 4712 ft | 205 kts | 63° |
| 2026-05-04 22:48 | 43.46443 | 6.94092 | 4551 ft | 200 kts | 63° |
| 2026-05-04 22:49 | 43.47217 | 6.95682 | 4309 ft | 200 kts | 53° |
| 2026-05-04 22:49 | 43.48159 | 6.97088 | 4080 ft | 199 kts | 49° |
| 2026-05-04 22:49 | 43.49136 | 6.98439 | 3981 ft | 199 kts | 48° |
| 2026-05-04 22:49 | 43.50106 | 6.99766 | 3980 ft | 198 kts | 48° |
| 2026-05-04 22:50 | 43.51064 | 7.01071 | 3882 ft | 190 kts | 48° |
| 2026-05-04 22:50 | 43.51992 | 7.02337 | 3656 ft | 184 kts | 49° |
| 2026-05-04 22:50 | 43.52881 | 7.03550 | 3424 ft | 177 kts | 49° |
| 2026-05-04 22:50 | 43.53745 | 7.04732 | 3195 ft | 175 kts | 49° |
| 2026-05-04 22:51 | 43.54606 | 7.05909 | 2955 ft | 174 kts | 49° |
| 2026-05-04 22:51 | 43.55458 | 7.07074 | 2727 ft | 172 kts | 49° |
| 2026-05-04 22:51 | 43.56302 | 7.08228 | 2498 ft | 171 kts | 50° |
| 2026-05-04 22:51 | 43.57145 | 7.09381 | 2269 ft | 170 kts | 49° |
| 2026-05-04 22:52 | 43.57977 | 7.10518 | 2049 ft | 166 kts | 49° |
| 2026-05-04 22:52 | 43.58776 | 7.11612 | 1831 ft | 156 kts | 49° |
| 2026-05-04 22:52 | 43.59526 | 7.12639 | 1626 ft | 149 kts | 49° |
| 2026-05-04 22:52 | 43.60251 | 7.13634 | 1421 ft | 142 kts | 49° |
| 2026-05-04 22:53 | 43.60912 | 7.14533 | 1282 ft | 130 kts | 46° |
| 2026-05-04 22:53 | 43.61568 | 7.15439 | 1064 ft | 132 kts | 44° |
| 2026-05-04 22:53 | 43.62202 | 7.16333 | 867 ft | 130 kts | 44° |
| 2026-05-04 22:53 | 43.62835 | 7.17209 | 679 ft | 128 kts | 41° |
| 2026-05-04 22:54 | 43.63479 | 7.18066 | 541 ft | 129 kts | 43° |
| 2026-05-04 22:54 | 43.64110 | 7.18939 | 397 ft | 127 kts | 44° |
| 2026-05-04 22:54 | 43.64730 | 7.19786 | 202 ft | 126 kts | 45° |
| 2026-05-04 22:54 | 43.65350 | 7.20636 | 43 ft | 123 kts | 45° |
| 2026-05-04 22:55 | 43.65863 | 7.21340 | 21 ft | 69 kts | 45° |
| 2026-05-04 22:55 | 43.66043 | 7.21588 | 20 ft | 25 kts | 45° |
| 2026-05-04 22:55 | 43.66141 | 7.21723 | 21 ft | 13 kts | 45° |
| 2026-05-04 22:55 | 43.66212 | 7.21756 | 22 ft | 12 kts | 339° |
| 2026-05-04 22:56 | 43.66269 | 7.21680 | 21 ft | 9 kts | 313° |
| 2026-05-04 22:56 | 43.66310 | 7.21620 | 21 ft | 8 kts | 314° |
| 2026-05-04 22:56 | 43.66341 | 7.21579 | 21 ft | 5 kts | 316° |
| 2026-05-04 22:56 | 43.66366 | 7.21545 | 21 ft | 4 kts | 316° |
| 2026-05-04 22:57 | 43.66380 | 7.21513 | 21 ft | 3 kts | 283° |
| 2026-05-04 22:57 | 43.66366 | 7.21472 | 23 ft | 5 kts | 237° |
| 2026-05-04 22:57 | 43.66355 | 7.21431 | 21 ft | 4 kts | 279° |
| 2026-05-04 22:57 | 43.66371 | 7.21420 | 21 ft | 2 kts | 345° |
| 2026-05-04 22:58 | 43.66389 | 7.21417 | 21 ft | 2 kts | 351° |
| 2026-05-04 22:58 | 43.66415 | 7.21411 | 21 ft | 3 kts | 350° |
| 2026-05-04 22:58 | 43.66431 | 7.21407 | 21 ft | 2 kts | 350° |
| 2026-05-04 22:58 | 43.66435 | 7.21406 | 24 ft | 0 kts | 350° |